Time;durP1;ratioP1;P1;durP2;ratioP2;P2;SDS_P1;SDS_P2;PMS_P1;PMS_P2;Temp;Humidity;BMP_temperature;BMP_pressure;BME280_temperature;BME280_humidity;BME280_pressure;Samples;Min_cycle;Max_cycle;Signal;HPM_P1;HPM_P2
2023/03/30 00:01:16;;;;;;;2.23;2.03;;;10.10;97.30;;;;;;5029386;28;20172;-81
2023/03/30 00:03:43;;;;;;;3.53;1.53;;;10.20;97.30;;;;;;5053716;28;20436;-82
2023/03/30 00:06:10;;;;;;;1.47;1.30;;;10.20;97.30;;;;;;5036994;28;20176;-84
2023/03/30 00:08:36;;;;;;;1.67;1.57;;;10.20;97.30;;;;;;5029057;28;20496;-82
2023/03/30 00:11:08;;;;;;;12.23;1.80;;;10.20;97.30;;;;;;5051567;28;20419;-83
2023/03/30 00:13:35;;;;;;;1.80;1.70;;;10.30;97.30;;;;;;5025990;28;20414;-84
2023/03/30 00:16:02;;;;;;;2.83;2.63;;;10.30;97.30;;;;;;5030171;28;20463;-84
2023/03/30 00:18:28;;;;;;;1.60;1.20;;;10.30;97.30;;;;;;5040901;28;20969;-81
2023/03/30 00:20:54;;;;;;;1.17;1.07;;;10.30;97.30;;;;;;5051459;28;20907;-82
2023/03/30 00:23:21;;;;;;;1.20;1.10;;;10.30;97.30;;;;;;5043233;28;20461;-81
2023/03/30 00:25:47;;;;;;;2.07;1.67;;;10.30;97.30;;;;;;5034718;28;20509;-82
2023/03/30 00:28:12;;;;;;;1.30;1.20;;;10.30;97.30;;;;;;5059781;28;20441;-81
2023/03/30 00:30:38;;;;;;;1.50;1.40;;;10.30;97.30;;;;;;5042790;28;20548;-82
2023/03/30 00:33:04;;;;;;;1.57;1.47;;;10.30;97.30;;;;;;5043001;28;20179;-81
2023/03/30 00:35:30;;;;;;;2.40;2.20;;;10.30;97.30;;;;;;5036307;28;20199;-85
2023/03/30 00:37:56;;;;;;;1.53;1.50;;;10.30;97.30;;;;;;5035422;28;20442;-84
2023/03/30 00:40:23;;;;;;;1.37;1.27;;;10.30;97.30;;;;;;5034996;28;20195;-84
2023/03/30 00:42:49;;;;;;;1.00;0.90;;;10.30;97.30;;;;;;5034277;28;20418;-84
2023/03/30 00:45:25;;;;;;;3.00;1.77;;;10.30;97.30;;;;;;5024533;28;20472;-85
2023/03/30 00:48:05;;;;;;;1.37;1.27;;;10.20;97.30;;;;;;5031244;28;20204;-83
2023/03/30 00:50:43;;;;;;;1.40;1.30;;;10.20;97.30;;;;;;5042435;28;20425;-85
2023/03/30 00:53:17;;;;;;;0.90;0.80;;;10.20;97.30;;;;;;5033458;28;20432;-82
2023/03/30 00:55:45;;;;;;;1.20;1.10;;;10.10;97.30;;;;;;5032337;28;20485;-80
2023/03/30 00:58:13;;;;;;;6.00;3.10;;;10.10;97.30;;;;;;5034545;28;20973;-85
2023/03/30 01:00:39;;;;;;;1.70;1.60;;;10.10;97.30;;;;;;5033533;28;20410;-85
2023/03/30 01:03:17;;;;;;;2.37;1.43;;;10.10;97.30;;;;;;5024907;28;20419;-85
2023/03/30 01:05:45;;;;;;;1.10;1.10;;;10.10;97.30;;;;;;5036265;28;20768;-83
2023/03/30 01:08:15;;;;;;;1.73;1.50;;;10.00;97.30;;;;;;5036490;28;20450;-79
2023/03/30 01:10:42;;;;;;;1.93;1.83;;;10.10;97.30;;;;;;5040992;28;20457;-80
2023/03/30 01:13:07;;;;;;;2.43;2.23;;;10.00;97.30;;;;;;5056449;28;20433;-82
2023/03/30 01:15:39;;;;;;;1.30;1.23;;;10.00;97.30;;;;;;5042183;28;20876;-82
2023/03/30 01:18:14;;;;;;;1.40;1.20;;;10.00;97.30;;;;;;5041936;28;20219;-80
2023/03/30 01:21:06;;;;;;;1.13;1.03;;;10.00;97.30;;;;;;5034379;28;20454;-80
2023/03/30 01:23:49;;;;;;;5.20;2.53;;;10.00;97.30;;;;;;5037995;28;20414;-83
2023/03/30 01:26:41;;;;;;;3.20;2.20;;;9.90;97.30;;;;;;5030736;28;20880;-83
2023/03/30 01:29:33;;;;;;;1.67;1.40;;;9.90;97.30;;;;;;5039587;28;20446;-82
2023/03/30 01:32:20;;;;;;;22.80;2.10;;;9.90;97.30;;;;;;5032164;28;20800;-81
2023/03/30 01:34:52;;;;;;;1.90;1.80;;;9.90;97.30;;;;;;5048595;28;20437;-81
2023/03/30 01:37:30;;;;;;;1.57;1.47;;;9.90;97.30;;;;;;5042540;28;20520;-81
2023/03/30 01:40:14;;;;;;;5.97;2.03;;;9.90;97.30;;;;;;5042593;28;20438;-82
2023/03/30 01:43:00;;;;;;;4.73;2.43;;;10.00;97.30;;;;;;5041814;28;20414;-82
2023/03/30 01:45:54;;;;;;;11.60;4.87;;;10.00;97.30;;;;;;5044772;28;20502;-81
2023/03/30 01:48:44;;;;;;;4.50;4.20;;;10.00;97.30;;;;;;5033712;28;20553;-82
2023/03/30 01:51:16;;;;;;;2.33;2.10;;;10.00;97.30;;;;;;5032743;28;20420;-81
2023/03/30 01:54:05;;;;;;;1.70;1.60;;;10.00;97.30;;;;;;5050540;28;20437;-83
2023/03/30 01:56:58;;;;;;;1.70;1.60;;;10.00;97.30;;;;;;5026822;28;20478;-83
2023/03/30 01:59:28;;;;;;;2.20;1.80;;;10.00;97.30;;;;;;5042402;28;20438;-81
2023/03/30 02:01:59;;;;;;;3.00;2.10;;;10.10;97.30;;;;;;5040204;28;21230;-82
2023/03/30 02:04:26;;;;;;;3.13;2.97;;;10.10;97.30;;;;;;5059378;28;20970;-80
2023/03/30 02:06:57;;;;;;;4.80;3.67;;;10.10;97.30;;;;;;5054022;28;20407;-83
2023/03/30 02:09:25;;;;;;;3.57;3.40;;;10.10;97.30;;;;;;5033811;28;20500;-83
2023/03/30 02:11:52;;;;;;;2.33;1.90;;;10.10;97.30;;;;;;5025643;28;20447;-80
2023/03/30 02:14:21;;;;;;;1.50;1.40;;;10.10;97.30;;;;;;5060734;28;20794;-82
2023/03/30 02:16:50;;;;;;;2.50;2.30;;;10.10;97.30;;;;;;5042802;28;20457;-82
2023/03/30 02:19:16;;;;;;;18.53;3.23;;;10.10;97.30;;;;;;5035739;28;20434;-81
2023/03/30 02:21:42;;;;;;;2.70;2.50;;;10.10;97.30;;;;;;5042842;28;20466;-83
2023/03/30 02:24:18;;;;;;;7.13;3.10;;;10.10;97.30;;;;;;5043819;28;20599;-83
2023/03/30 02:26:46;;;;;;;10.63;3.03;;;10.10;97.30;;;;;;5038336;28;20426;-83
2023/03/30 02:29:12;;;;;;;2.27;2.07;;;10.10;97.30;;;;;;5041085;28;20446;-83
2023/03/30 02:31:38;;;;;;;2.93;2.17;;;10.10;97.30;;;;;;5044647;28;20445;-83
2023/03/30 02:34:35;;;;;;;1.63;1.53;;;10.10;97.30;;;;;;5042290;28;20438;-83
2023/03/30 02:37:32;;;;;;;2.80;1.50;;;10.00;97.30;;;;;;5037126;28;20447;-82
2023/03/30 02:40:15;;;;;;;1.30;1.20;;;10.00;97.30;;;;;;5046335;28;20438;-83
2023/03/30 02:42:54;;;;;;;1.20;1.20;;;10.00;97.30;;;;;;5055056;28;20447;-83
2023/03/30 02:45:38;;;;;;;1.13;1.03;;;10.00;97.30;;;;;;5027638;28;20493;-82
2023/03/30 02:48:17;;;;;;;1.40;1.30;;;10.00;97.30;;;;;;5035327;28;20425;-83
2023/03/30 02:51:24;;;;;;;1.10;1.00;;;10.00;97.30;;;;;;5033068;28;20434;-84
2023/03/30 02:54:11;;;;;;;1.87;1.83;;;10.00;97.30;;;;;;5001161;28;20479;-83
2023/03/30 02:56:47;;;;;;;1.20;1.00;;;10.00;97.30;;;;;;5032501;28;20465;-83
2023/03/30 02:59:29;;;;;;;1.27;1.00;;;10.00;97.30;;;;;;5032700;28;20430;-82
2023/03/30 03:02:04;;;;;;;2.27;1.97;;;10.00;97.30;;;;;;5032327;28;20407;-82
2023/03/30 03:04:32;;;;;;;2.73;1.73;;;10.00;97.30;;;;;;5027404;28;20865;-81
2023/03/30 03:07:01;;;;;;;11.43;2.67;;;10.10;97.30;;;;;;5026789;28;20422;-82
2023/03/30 03:09:27;;;;;;;4.93;2.70;;;10.10;97.30;;;;;;5026916;28;20592;-83
2023/03/30 03:11:53;;;;;;;2.17;1.60;;;10.10;97.30;;;;;;5052020;28;20428;-82
2023/03/30 03:14:19;;;;;;;1.43;1.33;;;10.10;97.30;;;;;;5025574;28;20411;-81
2023/03/30 03:16:45;;;;;;;2.50;1.83;;;10.10;97.30;;;;;;5034105;28;20579;-84
2023/03/30 03:19:10;;;;;;;1.23;1.13;;;10.10;97.30;;;;;;5036277;28;20434;-82
2023/03/30 03:21:36;;;;;;;1.73;1.63;;;10.10;97.30;;;;;;5029531;28;20583;-84
2023/03/30 03:24:03;;;;;;;1.63;1.53;;;10.10;97.30;;;;;;5033309;28;20192;-82
2023/03/30 03:26:28;;;;;;;2.20;2.03;;;10.10;97.30;;;;;;5028651;28;20173;-84
2023/03/30 03:28:54;;;;;;;2.77;1.83;;;10.10;97.30;;;;;;5028960;28;20438;-85
2023/03/30 03:31:20;;;;;;;1.80;1.57;;;10.10;97.30;;;;;;5024712;28;20421;-84
2023/03/30 03:33:46;;;;;;;1.70;1.60;;;10.10;97.30;;;;;;5028246;28;20488;-84
2023/03/30 03:36:12;;;;;;;1.17;1.07;;;10.10;97.30;;;;;;5025495;28;20470;-85
2023/03/30 03:38:37;;;;;;;2.23;1.40;;;10.10;97.30;;;;;;5020097;28;20204;-85
2023/03/30 03:41:03;;;;;;;1.27;1.20;;;10.10;97.30;;;;;;5030962;28;20180;-84
2023/03/30 03:43:29;;;;;;;1.63;1.57;;;10.10;97.30;;;;;;5037485;28;20282;-84
2023/03/30 03:45:54;;;;;;;1.73;1.10;;;10.10;97.30;;;;;;5037614;28;20541;-86
2023/03/30 03:48:22;;;;;;;1.00;0.90;;;10.10;97.30;;;;;;5036069;28;20302;-86
2023/03/30 03:50:53;;;;;;;1.30;1.20;;;10.10;97.30;;;;;;5025833;28;20184;-85
2023/03/30 03:53:20;;;;;;;4.47;1.77;;;10.10;97.30;;;;;;5023819;28;20423;-86
2023/03/30 03:55:46;;;;;;;1.93;1.57;;;10.20;97.30;;;;;;5035413;28;20853;-85
2023/03/30 03:58:14;;;;;;;1.43;1.33;;;10.20;97.30;;;;;;5022978;28;20533;-85
2023/03/30 04:00:40;;;;;;;2.50;1.40;;;10.10;97.30;;;;;;5034991;28;20179;-83
2023/03/30 04:03:07;;;;;;;0.83;0.77;;;10.10;97.30;;;;;;5035243;28;20418;-85
2023/03/30 04:05:34;;;;;;;1.20;1.20;;;10.10;97.30;;;;;;5024428;28;20180;-86
2023/03/30 04:08:00;;;;;;;4.90;2.23;;;10.10;97.30;;;;;;5022910;28;20423;-86
2023/03/30 04:10:25;;;;;;;1.83;1.70;;;10.10;97.30;;;;;;5015764;28;20422;-85
2023/03/30 04:12:55;;;;;;;2.23;1.43;;;10.10;97.30;;;;;;5027138;28;20419;-85
2023/03/30 04:15:21;;;;;;;6.47;1.60;;;10.10;97.30;;;;;;5033475;28;20525;-86
2023/03/30 04:17:48;;;;;;;3.93;3.73;;;10.10;97.30;;;;;;5045071;28;20517;-86
2023/03/30 04:20:14;;;;;;;3.20;2.53;;;10.00;97.30;;;;;;5032729;28;20287;-85
2023/03/30 04:22:44;;;;;;;9.50;3.57;;;10.00;97.30;;;;;;5026458;28;20418;-85
2023/03/30 04:25:13;;;;;;;2.40;2.03;;;9.90;97.30;;;;;;5028486;28;20962;-85
2023/03/30 04:27:41;;;;;;;1.10;1.10;;;9.90;97.30;;;;;;5051014;28;20414;-86
2023/03/30 04:30:08;;;;;;;12.33;3.03;;;9.90;97.30;;;;;;5023019;28;20455;-85
2023/03/30 04:32:37;;;;;;;1.40;1.30;;;9.90;97.30;;;;;;5022907;28;20786;-84
2023/03/30 04:35:04;;;;;;;1.20;1.13;;;10.00;97.30;;;;;;5048689;28;20406;-85
2023/03/30 04:37:30;;;;;;;2.10;1.87;;;10.00;97.30;;;;;;5024491;28;20448;-86
2023/03/30 04:39:57;;;;;;;3.67;1.90;;;10.10;97.30;;;;;;5051879;28;20516;-85
2023/03/30 04:42:29;;;;;;;2.40;1.67;;;10.30;97.30;;;;;;5029732;28;20184;-86
2023/03/30 04:44:57;;;;;;;1.70;1.60;;;10.30;97.30;;;;;;5030668;28;20437;-85
2023/03/30 04:47:25;;;;;;;1.93;1.63;;;10.40;97.30;;;;;;5041482;28;20427;-85
2023/03/30 04:49:51;;;;;;;1.73;1.63;;;10.50;97.30;;;;;;5027783;28;20447;-85
2023/03/30 04:52:17;;;;;;;2.30;1.57;;;10.60;97.30;;;;;;5031773;28;20792;-85
2023/03/30 04:54:43;;;;;;;1.00;0.90;;;10.70;97.30;;;;;;5023549;28;20176;-85
2023/03/30 04:57:09;;;;;;;1.17;1.07;;;10.70;97.30;;;;;;5051560;28;20460;-86
2023/03/30 04:59:35;;;;;;;1.97;1.87;;;10.80;97.30;;;;;;5042885;28;20860;-85
2023/03/30 05:02:02;;;;;;;1.13;1.13;;;10.80;97.30;;;;;;5021775;28;20176;-85
2023/03/30 05:04:27;;;;;;;1.20;1.10;;;10.90;97.30;;;;;;5034443;28;20176;-86
2023/03/30 05:06:53;;;;;;;1.10;0.90;;;10.90;97.30;;;;;;5031485;28;20422;-87
2023/03/30 05:09:18;;;;;;;1.40;1.30;;;11.00;97.30;;;;;;5022884;28;20212;-86
2023/03/30 05:11:44;;;;;;;1.20;1.10;;;11.00;97.30;;;;;;5028475;28;20195;-86
2023/03/30 05:14:09;;;;;;;1.43;1.33;;;11.10;97.30;;;;;;5025319;28;20200;-87
2023/03/30 05:16:35;;;;;;;3.33;1.37;;;11.20;97.30;;;;;;5029456;28;20214;-85
2023/03/30 05:19:01;;;;;;;2.10;1.67;;;11.20;97.30;;;;;;5029086;28;20566;-86
2023/03/30 05:21:26;;;;;;;1.47;1.40;;;11.20;97.30;;;;;;5022406;28;20465;-86
2023/03/30 05:23:52;;;;;;;1.77;1.53;;;11.30;97.30;;;;;;5029266;28;20194;-85
2023/03/30 05:26:17;;;;;;;1.10;1.00;;;11.30;97.30;;;;;;5031034;28;20191;-87
2023/03/30 05:28:43;;;;;;;1.30;1.20;;;11.40;97.30;;;;;;5028139;28;20209;-86
2023/03/30 05:31:08;;;;;;;1.30;0.93;;;11.40;97.30;;;;;;5042990;28;20497;-87
2023/03/30 05:33:34;;;;;;;1.53;1.43;;;11.50;97.30;;;;;;5024853;28;20803;-86
2023/03/30 05:35:59;;;;;;;6.10;1.97;;;11.60;97.30;;;;;;5049028;28;20227;-86
2023/03/30 05:38:25;;;;;;;2.73;1.77;;;11.60;97.30;;;;;;5018853;28;20208;-86
2023/03/30 05:40:53;;;;;;;1.13;1.03;;;11.70;97.30;;;;;;5028450;28;20667;-87
2023/03/30 05:43:19;;;;;;;1.20;1.10;;;11.70;97.30;;;;;;5028766;28;20176;-86
2023/03/30 05:45:45;;;;;;;0.90;0.90;;;11.80;97.30;;;;;;5028374;28;20435;-86
2023/03/30 05:48:11;;;;;;;1.23;1.13;;;11.80;97.30;;;;;;5031655;28;20447;-86
2023/03/30 05:50:36;;;;;;;5.33;2.07;;;11.80;97.30;;;;;;5028543;28;20219;-87
2023/03/30 05:53:02;;;;;;;1.90;1.20;;;11.80;97.30;;;;;;5030909;28;20183;-86
2023/03/30 05:55:28;;;;;;;3.23;1.40;;;11.80;97.30;;;;;;5032561;28;20211;-87
2023/03/30 05:57:55;;;;;;;0.90;0.80;;;11.80;97.30;;;;;;5050405;28;20191;-87
2023/03/30 06:00:21;;;;;;;3.10;2.10;;;11.80;97.30;;;;;;5050517;28;20179;-86
2023/03/30 06:02:47;;;;;;;2.07;1.93;;;11.80;97.30;;;;;;5027379;28;20453;-86
2023/03/30 06:05:13;;;;;;;1.13;1.00;;;11.80;97.30;;;;;;5042738;28;20809;-87
2023/03/30 06:07:39;;;;;;;3.57;2.00;;;11.80;97.30;;;;;;5044991;28;20845;-87
2023/03/30 06:10:06;;;;;;;3.40;3.30;;;11.80;97.30;;;;;;5022740;28;20384;-86
2023/03/30 06:12:32;;;;;;;1.53;1.43;;;11.90;97.30;;;;;;5030784;28;20647;-86
2023/03/30 06:14:58;;;;;;;1.80;1.70;;;11.90;97.30;;;;;;5019539;28;20789;-86
2023/03/30 06:17:24;;;;;;;2.10;1.67;;;11.90;97.30;;;;;;5030582;28;20462;-86
2023/03/30 06:19:50;;;;;;;3.83;1.60;;;12.00;97.30;;;;;;5032628;28;20996;-86
2023/03/30 06:22:15;;;;;;;2.63;2.30;;;12.00;97.30;;;;;;5021628;28;20550;-84
2023/03/30 06:24:41;;;;;;;1.40;1.30;;;12.00;97.30;;;;;;5030131;28;20172;-86
2023/03/30 06:27:07;;;;;;;11.33;2.90;;;12.10;97.30;;;;;;5022423;28;20643;-86
2023/03/30 06:29:32;;;;;;;3.43;3.10;;;12.20;97.30;;;;;;5048071;28;20229;-87
2023/03/30 06:31:58;;;;;;;2.50;1.50;;;12.20;97.30;;;;;;5038617;28;20784;-87
2023/03/30 06:34:23;;;;;;;2.60;1.10;;;12.20;97.30;;;;;;5037084;28;20208;-85
2023/03/30 06:36:49;;;;;;;1.43;1.33;;;12.30;97.30;;;;;;5030363;28;20196;-86
2023/03/30 06:39:16;;;;;;;1.17;1.10;;;12.30;97.30;;;;;;5030739;28;20230;-86
2023/03/30 06:41:41;;;;;;;1.10;1.00;;;12.40;97.30;;;;;;5030732;28;20538;-87
2023/03/30 06:44:09;;;;;;;3.03;1.10;;;12.50;97.30;;;;;;5022735;28;20426;-84
2023/03/30 06:46:34;;;;;;;2.87;2.00;;;12.50;97.30;;;;;;5031047;28;20183;-86
2023/03/30 06:49:00;;;;;;;0.97;0.87;;;12.60;97.30;;;;;;5026921;28;20443;-86
2023/03/30 06:51:26;;;;;;;2.23;1.20;;;12.70;97.30;;;;;;5029796;28;20184;-87
2023/03/30 06:53:52;;;;;;;1.47;1.37;;;12.70;97.30;;;;;;5025866;28;20437;-86
2023/03/30 06:56:21;;;;;;;0.90;0.90;;;12.70;97.30;;;;;;5060339;28;20207;-84
2023/03/30 06:58:52;;;;;;;2.37;2.03;;;12.90;97.30;;;;;;5044629;28;20215;-82
2023/03/30 07:01:21;;;;;;;1.40;1.30;;;13.10;97.30;;;;;;5045139;28;20418;-83
2023/03/30 07:04:01;;;;;;;1.40;1.30;;;13.40;96.90;;;;;;5039933;28;20411;-83
2023/03/30 07:06:42;;;;;;;1.53;1.43;;;13.60;96.70;;;;;;5043280;28;20441;-85
2023/03/30 07:09:11;;;;;;;2.23;1.70;;;13.80;96.30;;;;;;5044357;28;20437;-83
2023/03/30 07:12:00;;;;;;;1.10;1.00;;;14.00;96.50;;;;;;5047298;28;20504;-83
2023/03/30 07:14:28;;;;;;;1.60;1.53;;;14.20;95.70;;;;;;5035295;28;20457;-83
2023/03/30 07:17:01;;;;;;;2.23;2.03;;;14.20;95.80;;;;;;5036683;28;21108;-84
2023/03/30 07:19:26;;;;;;;2.07;1.27;;;14.30;95.80;;;;;;5036438;28;20439;-86
2023/03/30 07:21:52;;;;;;;3.53;3.10;;;14.30;95.90;;;;;;5043451;28;20454;-83
2023/03/30 07:24:17;;;;;;;4.97;2.40;;;14.30;95.70;;;;;;5031784;28;20176;-84
2023/03/30 07:26:43;;;;;;;2.40;1.53;;;14.40;95.90;;;;;;5038968;28;20214;-84
2023/03/30 07:29:08;;;;;;;1.20;1.10;;;14.40;96.00;;;;;;5038322;28;20192;-83
2023/03/30 07:31:34;;;;;;;5.43;2.00;;;14.40;96.20;;;;;;5024430;28;20188;-85
2023/03/30 07:34:00;;;;;;;1.00;0.90;;;14.40;96.40;;;;;;5031473;28;20266;-83
2023/03/30 07:36:25;;;;;;;8.47;1.73;;;14.50;96.40;;;;;;5034398;28;20204;-84
2023/03/30 07:38:51;;;;;;;1.23;1.10;;;14.50;96.60;;;;;;5054811;28;20211;-83
2023/03/30 07:41:17;;;;;;;4.20;1.67;;;14.50;96.50;;;;;;5031101;28;20663;-84
2023/03/30 07:43:42;;;;;;;2.53;1.47;;;14.60;96.90;;;;;;5043423;28;20631;-85
2023/03/30 07:46:11;;;;;;;1.47;1.27;;;14.60;97.10;;;;;;5043216;28;20405;-84
2023/03/30 07:48:37;;;;;;;2.60;2.40;;;14.70;97.00;;;;;;5025743;28;20722;-83
2023/03/30 07:51:05;;;;;;;1.50;1.40;;;14.70;97.20;;;;;;5038416;28;20485;-84
2023/03/30 07:53:32;;;;;;;2.40;1.30;;;14.70;97.30;;;;;;5059158;28;20522;-84
2023/03/30 07:55:57;;;;;;;1.33;1.23;;;14.70;97.30;;;;;;5056176;28;20935;-84
2023/03/30 07:58:23;;;;;;;1.00;0.90;;;14.80;97.30;;;;;;5052522;28;20442;-84
2023/03/30 08:00:48;;;;;;;1.00;0.90;;;14.80;97.30;;;;;;5032012;28;20264;-84
2023/03/30 08:03:14;;;;;;;1.63;1.57;;;14.90;97.30;;;;;;5040291;28;20187;-84
2023/03/30 08:05:40;;;;;;;2.10;1.73;;;15.00;97.30;;;;;;5042441;28;20184;-83
2023/03/30 08:08:06;;;;;;;7.77;1.80;;;15.00;97.10;;;;;;5043648;28;20929;-84
2023/03/30 08:10:32;;;;;;;1.80;1.70;;;15.00;97.10;;;;;;5032625;28;20451;-83
2023/03/30 08:12:58;;;;;;;1.67;1.57;;;15.00;96.90;;;;;;5042029;28;20414;-85
2023/03/30 08:15:24;;;;;;;1.70;1.60;;;15.00;97.10;;;;;;5041535;28;20437;-84
2023/03/30 08:17:49;;;;;;;2.60;1.77;;;15.00;96.80;;;;;;5045248;28;20198;-84
2023/03/30 08:20:15;;;;;;;1.30;1.17;;;15.00;96.90;;;;;;5035812;28;20207;-83
2023/03/30 08:22:40;;;;;;;1.87;1.83;;;15.00;97.20;;;;;;5036422;28;20187;-83
2023/03/30 08:25:06;;;;;;;1.67;1.20;;;15.00;97.30;;;;;;5035025;28;20219;-84
2023/03/30 08:27:32;;;;;;;4.10;1.43;;;15.00;97.30;;;;;;5040705;28;20184;-84
2023/03/30 08:29:57;;;;;;;1.10;1.00;;;15.00;96.80;;;;;;5031318;28;20230;-82
2023/03/30 08:32:23;;;;;;;1.50;1.40;;;15.00;97.00;;;;;;5033036;28;20279;-85
2023/03/30 08:34:49;;;;;;;3.40;1.80;;;14.90;96.90;;;;;;5035585;28;20176;-83
2023/03/30 08:37:14;;;;;;;3.33;1.23;;;14.90;96.90;;;;;;5042843;28;20259;-84
2023/03/30 08:39:40;;;;;;;2.10;1.33;;;14.90;97.00;;;;;;5036048;28;20199;-84
2023/03/30 08:42:29;;;;;;;6.30;2.50;;;14.80;97.00;;;;;;5029384;28;20224;-84
2023/03/30 08:45:02;;;;;;;1.20;1.13;;;14.80;97.20;;;;;;5056895;28;20191;-83
2023/03/30 08:47:33;;;;;;;1.40;1.30;;;14.80;97.30;;;;;;5033979;28;20432;-84
2023/03/30 08:50:03;;;;;;;6.10;1.20;;;14.70;97.30;;;;;;5040021;28;20435;-83
2023/03/30 08:52:29;;;;;;;1.53;1.47;;;14.60;97.30;;;;;;5028706;28;20930;-85
2023/03/30 08:54:56;;;;;;;1.93;1.67;;;14.60;97.30;;;;;;5030405;28;20425;-83
2023/03/30 08:57:58;;;;;;;1.20;1.10;;;14.60;97.30;;;;;;5026460;28;20196;-85
2023/03/30 09:00:29;;;;;;;3.17;1.47;;;14.60;97.30;;;;;;5030552;28;20446;-83
2023/03/30 09:03:09;;;;;;;4.30;2.10;;;14.60;97.30;;;;;;5033163;28;20399;-85
2023/03/30 09:05:42;;;;;;;2.30;2.07;;;14.50;97.30;;;;;;5044445;28;20407;-84
2023/03/30 09:08:19;;;;;;;1.57;1.47;;;14.50;97.30;;;;;;5053453;28;20411;-83
2023/03/30 09:10:51;;;;;;;6.63;1.77;;;14.50;97.30;;;;;;5052356;28;20441;-83
2023/03/30 09:13:21;;;;;;;1.83;1.57;;;14.50;97.30;;;;;;5033902;28;20442;-83
2023/03/30 09:16:13;;;;;;;2.60;1.97;;;14.40;97.30;;;;;;5036215;28;20447;-83
2023/03/30 09:18:41;;;;;;;1.90;1.80;;;14.40;97.30;;;;;;5038441;28;20442;-85
2023/03/30 09:21:12;;;;;;;2.47;1.20;;;14.40;97.30;;;;;;5053532;28;20458;-85
2023/03/30 09:23:38;;;;;;;1.37;1.27;;;14.50;97.30;;;;;;5040926;28;20418;-84
2023/03/30 09:26:48;;;;;;;1.60;1.57;;;14.50;97.30;;;;;;5042051;28;20454;-83
2023/03/30 09:29:37;;;;;;;1.70;1.40;;;14.60;97.30;;;;;;5037106;28;20483;-83
2023/03/30 09:32:13;;;;;;;1.77;1.53;;;14.60;97.30;;;;;;5029571;28;20419;-83
2023/03/30 09:34:55;;;;;;;7.80;1.33;;;14.70;97.30;;;;;;5040479;28;20438;-82
2023/03/30 09:37:21;;;;;;;3.00;2.80;;;14.80;97.30;;;;;;5040215;28;20454;-83
2023/03/30 09:39:48;;;;;;;1.80;1.50;;;14.80;96.80;;;;;;5040146;28;20434;-85
2023/03/30 09:42:35;;;;;;;6.83;1.23;;;14.90;96.90;;;;;;5039482;28;20518;-83
2023/03/30 09:45:21;;;;;;;8.47;1.77;;;14.90;96.80;;;;;;5028332;28;20506;-84
2023/03/30 09:47:46;;;;;;;1.47;1.43;;;14.90;96.60;;;;;;5038940;28;20445;-85
2023/03/30 09:50:20;;;;;;;1.47;1.43;;;14.90;96.80;;;;;;5038634;28;20454;-84
2023/03/30 09:53:01;;;;;;;2.13;1.00;;;14.80;96.90;;;;;;5041379;28;20186;-85
2023/03/30 09:55:30;;;;;;;1.17;1.10;;;14.80;97.10;;;;;;5046296;28;20415;-85
2023/03/30 09:58:19;;;;;;;9.00;1.27;;;14.80;97.30;;;;;;5034325;28;20422;-83
2023/03/30 10:00:59;;;;;;;1.30;1.20;;;14.80;97.30;;;;;;5041876;28;20421;-84
2023/03/30 10:03:26;;;;;;;2.23;2.03;;;14.80;97.30;;;;;;5041060;28;20418;-84
2023/03/30 10:06:17;;;;;;;1.20;1.10;;;14.80;97.30;;;;;;5020427;28;20419;-84
2023/03/30 10:08:50;;;;;;;1.90;1.20;;;14.80;97.30;;;;;;5041651;28;20525;-83
2023/03/30 10:11:42;;;;;;;2.90;2.70;;;14.80;97.30;;;;;;5036252;28;20427;-84
2023/03/30 10:14:31;;;;;;;3.30;2.13;;;14.90;97.30;;;;;;5037525;28;20422;-83
2023/03/30 10:16:58;;;;;;;3.23;1.47;;;15.00;97.30;;;;;;5042571;28;20972;-82
2023/03/30 10:19:24;;;;;;;1.50;1.40;;;15.10;97.30;;;;;;5035119;28;20443;-84
2023/03/30 10:21:54;;;;;;;2.13;1.40;;;15.20;97.30;;;;;;5049037;28;20447;-85
2023/03/30 10:24:30;;;;;;;1.93;1.87;;;15.30;97.30;;;;;;5050595;28;20168;-84
2023/03/30 10:27:08;;;;;;;0.90;0.80;;;15.40;97.30;;;;;;5037245;28;20422;-84
2023/03/30 10:29:34;;;;;;;23.03;3.77;;;15.40;97.30;;;;;;5038205;28;20470;-84
2023/03/30 10:32:14;;;;;;;2.47;2.27;;;15.50;97.30;;;;;;5043618;28;20437;-84
2023/03/30 10:34:42;;;;;;;3.80;2.30;;;15.70;97.30;;;;;;5045478;28;20414;-84
2023/03/30 10:37:15;;;;;;;1.47;1.37;;;15.80;97.30;;;;;;5034693;28;20582;-82
2023/03/30 10:39:43;;;;;;;2.53;1.63;;;15.90;97.30;;;;;;5039914;28;20527;-85
2023/03/30 10:42:14;;;;;;;1.43;1.37;;;16.10;97.10;;;;;;5049645;28;20466;-84
2023/03/30 10:44:53;;;;;;;1.83;1.50;;;16.20;97.20;;;;;;5034865;28;20979;-85
2023/03/30 10:47:31;;;;;;;1.27;1.17;;;16.30;96.60;;;;;;5032775;28;20445;-84
2023/03/30 10:50:35;;;;;;;1.40;1.30;;;16.20;96.60;;;;;;5032432;28;20444;-84
2023/03/30 10:53:20;;;;;;;1.80;1.70;;;16.10;97.00;;;;;;5039150;28;20420;-84
2023/03/30 10:56:13;;;;;;;2.90;1.70;;;16.00;97.10;;;;;;5045196;28;20465;-86
2023/03/30 10:59:02;;;;;;;4.33;1.83;;;15.80;97.30;;;;;;5033271;28;20426;-83
2023/03/30 11:02:05;;;;;;;1.40;1.33;;;15.80;97.30;;;;;;5056217;28;20418;-84
2023/03/30 11:05:03;;;;;;;1.30;1.20;;;15.80;97.30;;;;;;5032168;28;20410;-85
2023/03/30 11:07:50;;;;;;;2.40;1.67;;;15.90;97.30;;;;;;5022204;28;20944;-84
2023/03/30 11:10:28;;;;;;;2.97;2.10;;;16.00;97.30;;;;;;5044376;28;20453;-82
2023/03/30 11:13:04;;;;;;;2.30;1.70;;;16.10;97.30;;;;;;5039294;28;20454;-84
2023/03/30 11:15:46;;;;;;;2.50;1.67;;;16.20;97.30;;;;;;5040919;28;20978;-83
2023/03/30 11:18:49;;;;;;;7.90;1.60;;;16.30;96.90;;;;;;5037798;28;20417;-82
2023/03/30 11:21:49;;;;;;;1.37;1.33;;;16.60;96.60;;;;;;5016311;28;20462;-83
2023/03/30 11:24:26;;;;;;;1.10;1.10;;;16.80;96.40;;;;;;5040250;28;20442;-84
2023/03/30 11:27:02;;;;;;;1.77;1.70;;;17.00;95.60;;;;;;5040419;28;20421;-84
2023/03/30 11:29:48;;;;;;;4.67;2.90;;;17.20;95.00;;;;;;5032670;28;20442;-85
2023/03/30 11:32:24;;;;;;;4.50;2.50;;;17.40;94.70;;;;;;5038378;28;20422;-84
2023/03/30 11:35:18;;;;;;;2.67;1.30;;;17.50;94.00;;;;;;5042797;28;20838;-83
2023/03/30 11:38:09;;;;;;;2.80;1.77;;;17.70;94.50;;;;;;5041883;28;20434;-84
2023/03/30 11:40:42;;;;;;;1.33;1.23;;;;;;;;;;5030549;28;20422;-84
2023/03/30 11:43:10;;;;;;;0.90;0.90;;;17.80;93.10;;;;;;5054149;28;20406;-84
2023/03/30 11:46:02;;;;;;;0.97;0.93;;;17.70;94.10;;;;;;5032816;28;20398;-84
2023/03/30 11:48:35;;;;;;;1.80;1.73;;;17.70;94.00;;;;;;5043682;28;20434;-85
2023/03/30 11:51:19;;;;;;;2.65;2.05;;;17.60;93.80;;;;;;5029712;28;20848;-85
2023/03/30 11:54:37;;;;;;;1.57;1.47;;;17.40;94.00;;;;;;5031518;28;20415;-83
2023/03/30 11:57:20;;;;;;;2.40;2.20;;;17.40;94.10;;;;;;5029559;28;20454;-84
2023/03/30 12:00:23;;;;;;;1.50;1.40;;;17.60;94.60;;;;;;5043344;28;20469;-83
2023/03/30 12:03:07;;;;;;;8.27;2.60;;;17.60;93.80;;;;;;5041760;28;20484;-84
2023/03/30 12:05:44;;;;;;;2.93;1.70;;;17.70;93.90;;;;;;5051728;28;20484;-85
2023/03/30 12:08:44;;;;;;;3.57;1.90;;;18.00;93.40;;;;;;5031049;28;20415;-85
2023/03/30 12:11:33;;;;;;;5.47;1.60;;;18.30;92.60;;;;;;5039635;28;20688;-85
2023/03/30 12:14:00;;;;;;;1.20;1.10;;;18.70;91.60;;;;;;5026321;28;20406;-84
2023/03/30 12:16:40;;;;;;;1.40;1.20;;;18.80;91.50;;;;;;5033747;28;20473;-84
2023/03/30 12:19:25;;;;;;;2.40;1.75;;;19.00;90.90;;;;;;5031575;28;20430;-84
2023/03/30 12:21:57;;;;;;;2.67;1.37;;;19.00;90.90;;;;;;5044798;28;20472;-84
2023/03/30 12:24:35;;;;;;;1.83;1.77;;;;;;;;;;5037085;28;20470;-85
2023/03/30 12:27:01;;;;;;;2.30;2.10;;;18.90;90.60;;;;;;5050766;28;20303;-86
2023/03/30 12:29:52;;;;;;;1.80;1.67;;;18.50;91.40;;;;;;5050151;28;20472;-84
2023/03/30 12:39:14;;;;;;;1.93;1.87;;;18.90;91.20;;;;;;4966857;28;20532;-84
2023/03/30 12:41:47;;;;;;;7.67;2.20;;;19.10;91.30;;;;;;4946073;28;20430;-87
2023/03/30 12:44:40;;;;;;;4.90;1.90;;;19.40;91.30;;;;;;5003132;28;20468;-85
2023/03/30 12:47:17;;;;;;;4.00;1.93;;;19.40;89.70;;;;;;5030996;28;20219;-86
2023/03/30 12:50:09;;;;;;;7.50;2.07;;;18.90;90.10;;;;;;5037613;28;20483;-83
2023/03/30 12:52:55;;;;;;;2.00;1.90;;;18.50;91.20;;;;;;5038793;28;20449;-84
2023/03/30 12:55:20;;;;;;;1.20;1.20;;;18.50;91.40;;;;;;5035045;28;20505;-84
2023/03/30 12:57:52;;;;;;;2.67;1.63;;;18.40;91.30;;;;;;5040693;28;20501;-84
2023/03/30 13:00:46;;;;;;;2.27;1.40;;;18.50;91.80;;;;;;5038486;28;20638;-84
2023/03/30 13:03:36;;;;;;;9.93;1.87;;;18.90;90.30;;;;;;5001546;28;20470;-84
2023/03/30 13:06:04;;;;;;;8.90;2.00;;;19.00;88.90;;;;;;5026412;28;20421;-85
2023/03/30 13:08:35;;;;;;;1.43;1.20;;;19.40;89.10;;;;;;5033224;28;20447;-84
2023/03/30 13:11:17;;;;;;;13.03;2.50;;;19.60;87.80;;;;;;5030519;28;20491;-83
2023/03/30 13:13:45;;;;;;;1.10;1.00;;;19.20;87.00;;;;;;5028845;28;20438;-83
2023/03/30 13:16:11;;;;;;;1.50;1.40;;;18.90;88.40;;;;;;5034106;28;20810;-84
2023/03/30 13:18:52;;;;;;;1.20;1.10;;;18.70;89.00;;;;;;5030982;28;20442;-85
2023/03/30 13:21:19;;;;;;;1.37;1.33;;;18.50;89.30;;;;;;5048109;28;20290;-84
2023/03/30 13:23:59;;;;;;;2.27;1.50;;;18.40;89.30;;;;;;5037679;28;20453;-83